Time;durP1;ratioP1;P1;durP2;ratioP2;P2;SDS_P1;SDS_P2;PMS_P1;PMS_P2;Temp;Humidity;BMP_temperature;BMP_pressure;BME280_temperature;BME280_humidity;BME280_pressure;Samples;Min_cycle;Max_cycle;Signal;HPM_P1;HPM_P2
2022/06/11 00:00:45;;;;;;;1.75;0.35;;;;;;;24.96;40.31;100752.63;4991878;28;20069;-40
2022/06/11 00:03:11;;;;;;;0.77;0.20;;;;;;;24.95;40.16;100741.13;4991386;28;20054;-35
2022/06/11 00:05:37;;;;;;;0.25;0.10;;;;;;;24.95;40.14;100740.31;4991588;28;20057;-37
2022/06/11 00:08:03;;;;;;;0.63;0.10;;;;;;;24.95;40.07;100730.47;4991427;28;20088;-36
2022/06/11 00:10:29;;;;;;;2.97;0.10;;;;;;;24.95;40.23;100735.81;4991735;28;20145;-36
2022/06/11 00:12:54;;;;;;;0.50;0.20;;;;;;;24.94;40.13;100733.38;4991710;28;20125;-37
2022/06/11 00:15:19;;;;;;;0.47;0.20;;;;;;;24.93;40.17;100742.41;4991316;28;20026;-39
2022/06/11 00:17:45;;;;;;;0.32;0.10;;;;;;;24.93;40.16;100742.41;4991462;28;20037;-44
2022/06/11 00:20:12;;;;;;;0.35;0.10;;;;;;;24.93;40.23;100748.53;4991899;28;20034;-44
2022/06/11 00:22:39;;;;;;;0.40;0.10;;;;;;;24.92;40.05;100743.44;4991063;28;20049;-43
2022/06/11 00:25:05;;;;;;;0.30;0.10;;;;;;;24.92;40.24;100738.94;4991782;28;20537;-38
2022/06/11 00:27:30;;;;;;;0.50;0.20;;;;;;;24.93;40.39;100747.72;4991259;28;20034;-37
2022/06/11 00:29:56;;;;;;;0.50;0.10;;;;;;;24.92;40.32;100751.44;4991138;28;20077;-43
2022/06/11 00:32:21;;;;;;;0.25;0.10;;;;;;;24.93;40.14;100753.06;4991290;28;20033;-44
2022/06/11 00:34:47;;;;;;;1.25;0.20;;;;;;;24.93;40.23;100753.88;4990886;28;20065;-39
2022/06/11 00:37:17;;;;;;;1.10;0.10;;;;;;;24.94;40.30;100757.34;4991082;28;20042;-37
2022/06/11 00:39:44;;;;;;;0.40;0.10;;;;;;;24.95;40.15;100761.63;4973344;28;20084;-46
2022/06/11 00:42:24;;;;;;;0.47;0.20;;;;;;;24.94;40.21;100744.03;4991167;28;20066;-42
2022/06/11 00:45:12;;;;;;;1.83;0.10;;;;;;;24.94;40.39;100752.03;4991107;28;20529;-34
2022/06/11 00:47:38;;;;;;;1.10;0.20;;;;;;;24.95;40.34;100757.13;4990729;28;20042;-36
2022/06/11 00:50:21;;;;;;;0.35;0.20;;;;;;;24.95;40.31;100754.47;4990897;28;20028;-42
2022/06/11 00:52:48;;;;;;;0.88;0.20;;;;;;;24.97;40.36;100755.06;4990784;28;20109;-41
2022/06/11 00:55:22;;;;;;;0.28;0.10;;;;;;;24.96;40.07;100752.63;4990710;28;20459;-40
2022/06/11 00:57:59;;;;;;;0.88;0.10;;;;;;;24.97;40.19;100754.25;4990635;28;20066;-34
2022/06/11 01:00:29;;;;;;;0.30;0.10;;;;;;;24.96;40.16;100747.31;4990675;28;20446;-37
2022/06/11 01:02:55;;;;;;;0.63;0.10;;;;;;;24.97;40.35;100754.25;4990350;28;20049;-39
2022/06/11 01:05:25;;;;;;;0.20;0.10;;;;;;;24.97;40.39;100751.59;4990543;28;20073;-48
2022/06/11 01:08:09;;;;;;;0.50;0.10;;;;;;;24.95;40.31;100756.31;4972454;28;20030;-39
2022/06/11 01:10:50;;;;;;;0.40;0.10;;;;;;;24.95;40.29;100751.78;4990331;28;20324;-37
2022/06/11 01:13:37;;;;;;;0.85;0.10;;;;;;;24.94;40.45;100757.34;4990593;28;20505;-36
2022/06/11 01:16:13;;;;;;;0.90;0.10;;;;;;;24.95;40.36;100761.63;4990783;28;20100;-41
2022/06/11 01:18:51;;;;;;;0.40;0.10;;;;;;;24.94;40.42;100768.81;4990199;28;20027;-40
2022/06/11 01:21:34;;;;;;;0.40;0.10;;;;;;;24.94;40.34;100760.00;4990326;28;20034;-37
2022/06/11 01:24:26;;;;;;;0.50;0.20;;;;;;;24.93;40.53;100763.72;4990523;28;20050;-45
2022/06/11 01:26:56;;;;;;;0.28;0.10;;;;;;;24.94;40.52;100765.34;4990169;28;20038;-42
2022/06/11 01:29:49;;;;;;;0.32;0.10;;;;;;;24.93;40.42;100753.88;4990116;28;20137;-42
2022/06/11 01:32:20;;;;;;;0.22;0.10;;;;;;;24.94;40.78;100760.00;4990152;28;20046;-39
2022/06/11 01:34:46;;;;;;;1.60;0.10;;;;;;;24.95;40.63;100761.63;4989933;28;20030;-40
2022/06/11 01:37:22;;;;;;;0.25;0.10;;;;;;;24.95;40.81;100757.13;4990141;28;20030;-39
2022/06/11 01:40:02;;;;;;;0.40;0.20;;;;;;;24.95;40.81;100759.78;4989771;28;20092;-40
2022/06/11 01:42:44;;;;;;;0.30;0.10;;;;;;;24.96;40.80;100763.28;4989909;28;20031;-45
2022/06/11 01:45:14;;;;;;;1.63;0.20;;;;;;;24.96;40.90;100764.09;4989840;28;20063;-37
2022/06/11 01:47:42;;;;;;;1.20;0.30;;;;;;;24.96;40.98;100760.63;4989983;28;20026;-42
2022/06/11 01:50:10;;;;;;;0.82;0.22;;;;;;;24.96;40.91;100757.97;4989912;28;20466;-43
2022/06/11 01:52:45;;;;;;;0.85;0.20;;;;;;;24.94;40.96;100760.84;4989605;28;20513;-36
2022/06/11 01:55:25;;;;;;;1.38;0.30;;;;;;;24.93;41.32;100761.06;4989730;28;20065;-45
2022/06/11 01:58:20;;;;;;;0.47;0.20;;;;;;;24.92;41.17;100762.09;4989592;28;20581;-39
2022/06/11 02:01:03;;;;;;;1.55;0.17;;;;;;;24.91;41.36;100760.47;4989558;28;20038;-42
2022/06/11 02:03:38;;;;;;;4.70;0.30;;;;;;;24.91;41.37;100763.16;4970110;28;20427;-42
2022/06/11 02:06:25;;;;;;;1.17;0.25;;;;;;;24.91;41.52;100760.47;4970194;28;20118;-34
2022/06/11 02:09:03;;;;;;;0.70;0.30;;;;;;;24.90;41.41;100761.53;4969818;28;20486;-38
2022/06/11 02:11:42;;;;;;;0.85;0.20;;;;;;;24.88;41.67;100760.94;4970067;28;20089;-44
2022/06/11 02:14:26;;;;;;;0.82;0.20;;;;;;;24.88;41.55;100767.09;4970037;28;20485;-33
2022/06/11 02:17:18;;;;;;;1.48;0.20;;;;;;;24.88;41.69;100769.75;4969995;28;20041;-36
2022/06/11 02:19:51;;;;;;;2.53;0.20;;;;;;;24.87;41.52;100773.44;4968836;28;20137;-48
2022/06/11 02:22:21;;;;;;;1.30;0.22;;;;;;;24.88;41.71;100772.41;4969904;28;20484;-42
2022/06/11 02:24:52;;;;;;;0.88;0.20;;;;;;;24.87;41.89;100776.13;4969718;28;20431;-41
2022/06/11 02:27:23;;;;;;;1.05;0.20;;;;;;;24.88;41.88;100776.94;4969770;28;20125;-38
2022/06/11 02:29:50;;;;;;;0.70;0.20;;;;;;;24.87;41.93;100769.97;4969885;28;20042;-37
2022/06/11 02:32:18;;;;;;;2.47;0.20;;;;;;;24.88;41.99;100776.94;4969603;28;20479;-36
2022/06/11 02:34:47;;;;;;;0.90;0.20;;;;;;;24.86;42.21;100773.69;4969839;28;20027;-41
2022/06/11 02:37:31;;;;;;;0.60;0.20;;;;;;;24.85;42.02;100774.72;4969704;28;20038;-38
2022/06/11 02:42:37;;;;;;;2.38;0.20;;;;;;;24.85;42.40;100772.88;5182184;23;20484;-68
2022/06/11 02:45:03;;;;;;;1.27;0.20;;;;;;;24.86;42.13;100781.69;4991360;28;20069;-67
2022/06/11 02:47:29;;;;;;;0.55;0.10;;;;;;;24.86;42.15;100779.00;4989600;28;20059;-67
2022/06/11 02:49:54;;;;;;;0.70;0.13;;;;;;;24.86;42.50;100784.34;4990135;28;20030;-67
2022/06/11 02:52:22;;;;;;;0.75;0.20;;;;;;;24.86;42.20;100774.50;4988451;28;20038;-68
2022/06/11 02:54:52;;;;;;;1.88;0.20;;;;;;;24.86;42.13;100781.69;4988505;28;20116;-69
2022/06/11 02:57:27;;;;;;;1.77;0.15;;;;;;;24.85;42.41;100782.72;4989092;28;20096;-68
2022/06/11 02:59:53;;;;;;;;;;;;;;;24.76;42.78;100777.72;4989010;28;20038;-67
2022/06/11 03:02:20;;;;;;;0.70;0.17;;;;;;;24.79;42.23;100779.13;4988495;28;20280;-67
2022/06/11 03:04:46;;;;;;;1.10;0.20;;;;;;;24.79;42.63;100782.59;4988699;28;20034;-68
2022/06/11 03:07:11;;;;;;;0.63;0.20;;;;;;;24.79;42.63;100779.94;4988212;28;20096;-67
2022/06/11 03:09:38;;;;;;;1.80;0.25;;;;;;;24.83;42.43;100790.13;4988552;28;20545;-68
2022/06/11 03:12:06;;;;;;;3.67;0.20;;;;;;;24.81;42.60;100788.50;4988478;28;20073;-67
2022/06/11 03:14:32;;;;;;;2.17;0.30;;;;;;;24.81;42.45;100790.38;4988340;28;20023;-67
2022/06/11 03:16:57;;;;;;;1.55;0.20;;;;;;;24.79;42.71;100790.59;4988459;28;20537;-68
2022/06/11 03:19:23;;;;;;;0.47;0.22;;;;;;;24.79;42.32;100789.78;4988158;28;20034;-68
2022/06/11 03:21:50;;;;;;;0.70;0.20;;;;;;;24.79;42.50;100801.25;4988174;28;20058;-68
2022/06/11 03:24:16;;;;;;;1.75;0.30;;;;;;;24.78;42.70;100802.28;4988478;28;20034;-68
2022/06/11 03:26:42;;;;;;;1.75;0.20;;;;;;;24.79;42.55;100798.59;4988065;28;20483;-68
2022/06/11 03:29:08;;;;;;;2.58;0.50;;;;;;;24.78;42.12;100799.63;4988292;28;20039;-68
2022/06/11 03:31:34;;;;;;;1.15;0.28;;;;;;;24.79;42.31;100798.59;4990638;28;20033;-68
2022/06/11 03:34:00;;;;;;;2.85;0.20;;;;;;;24.79;42.45;100803.09;4991690;28;20121;-68
2022/06/11 03:36:26;;;;;;;1.48;0.30;;;;;;;24.80;42.44;100802.88;4992084;28;20109;-68
2022/06/11 03:38:51;;;;;;;0.70;0.20;;;;;;;24.80;42.43;100802.88;4992027;28;20382;-68
2022/06/11 03:41:18;;;;;;;2.53;0.40;;;;;;;24.81;42.28;100804.50;4991773;28;20036;-68
2022/06/11 03:43:44;;;;;;;2.38;0.20;;;;;;;24.82;42.50;100810.63;4991781;28;20033;-68
2022/06/11 03:46:09;;;;;;;1.92;0.30;;;;;;;24.83;42.33;100816.78;4991623;28;20030;-68
2022/06/11 03:48:37;;;;;;;0.65;0.10;;;;;;;24.83;42.45;100820.25;4991675;28;20044;-68
2022/06/11 03:51:04;;;;;;;3.22;0.20;;;;;;;24.84;42.44;100821.88;4991292;28;20486;-67
2022/06/11 03:53:31;;;;;;;2.78;0.32;;;;;;;24.84;42.26;100824.53;4991435;28;20552;-68
2022/06/11 03:55:57;;;;;;;2.58;0.30;;;;;;;24.85;42.29;100825.34;4991818;28;20421;-68
2022/06/11 03:58:23;;;;;;;2.15;0.30;;;;;;;24.85;42.27;100825.34;4991535;28;20048;-68
2022/06/11 04:03:35;;;;;;;0.82;0.20;;;;;;;24.83;42.02;100838.91;4991578;28;20080;-67
2022/06/11 04:06:02;;;;;;;1.33;0.20;;;;;;;24.84;42.20;100829.06;4991542;28;20133;-67
2022/06/11 04:08:28;;;;;;;1.15;0.30;;;;;;;24.86;42.01;100833.13;4991462;28;20038;-67
2022/06/11 04:10:58;;;;;;;0.82;0.30;;;;;;;24.86;41.98;100832.31;4991378;28;20027;-68
2022/06/11 04:13:26;;;;;;;1.58;0.10;;;;;;;24.86;42.08;100833.13;4991275;28;20034;-68
2022/06/11 04:15:52;;;;;;;0.88;0.30;;;;;;;24.86;41.83;100832.31;4991165;28;20058;-68
2022/06/11 04:18:38;;;;;;;1.58;0.32;;;;;;;24.84;41.99;100842.38;4991567;28;20030;-67
2022/06/11 04:21:06;;;;;;;1.80;0.10;;;;;;;24.85;42.40;100838.69;4991220;28;20557;-67
2022/06/11 04:23:33;;;;;;;1.55;0.20;;;;;;;24.86;42.22;100846.44;4991396;28;20058;-67
2022/06/11 04:26:02;;;;;;;0.90;0.20;;;;;;;24.87;42.47;100844.59;4990956;28;20121;-67
2022/06/11 04:28:30;;;;;;;1.10;0.28;;;;;;;24.87;42.34;100850.72;4990788;28;20034;-67
2022/06/11 04:30:58;;;;;;;0.40;0.20;;;;;;;24.87;42.16;100861.41;4990834;28;20030;-67
2022/06/11 04:33:24;;;;;;;1.10;0.20;;;;;;;24.88;42.07;100854.22;4991159;28;20029;-67
2022/06/11 04:35:49;;;;;;;1.00;0.20;;;;;;;24.87;42.17;100861.41;4991328;28;20030;-67
2022/06/11 04:38:16;;;;;;;0.50;0.10;;;;;;;24.88;42.04;100860.34;4990859;28;20401;-68
2022/06/11 04:40:42;;;;;;;0.80;0.20;;;;;;;24.87;42.03;100856.06;4990639;28;20030;-67
2022/06/11 04:43:07;;;;;;;2.15;0.20;;;;;;;24.87;41.99;100861.41;4989546;28;20050;-68
2022/06/11 04:45:33;;;;;;;0.50;0.20;;;;;;;24.87;41.90;100865.91;4990918;28;20145;-68
2022/06/11 04:47:59;;;;;;;0.43;0.10;;;;;;;24.86;41.90;100869.63;4990894;28;20496;-67
2022/06/11 04:50:25;;;;;;;1.75;0.15;;;;;;;24.85;41.80;100860.81;4990599;28;20022;-67
2022/06/11 04:52:51;;;;;;;0.30;0.10;;;;;;;24.85;41.71;100865.31;4990624;28;20498;-67
2022/06/11 04:55:16;;;;;;;0.40;0.15;;;;;;;24.84;41.80;100867.19;4990392;28;20097;-69
2022/06/11 04:57:43;;;;;;;1.58;0.30;;;;;;;24.84;41.92;100864.53;4990256;28;20030;-68
2022/06/11 05:00:13;;;;;;;1.52;0.20;;;;;;;24.83;41.67;100864.75;4990623;28;20054;-68
2022/06/11 05:02:38;;;;;;;0.60;0.10;;;;;;;24.83;41.72;100870.06;4972858;28;20062;-67
2022/06/11 05:05:06;;;;;;;0.50;0.10;;;;;;;24.83;41.57;100870.06;4990548;28;20066;-67
2022/06/11 05:07:32;;;;;;;2.65;0.10;;;;;;;24.83;41.66;100873.56;4990246;28;20474;-68
2022/06/11 05:09:58;;;;;;;0.90;0.20;;;;;;;24.83;41.56;100875.41;4990208;28;20027;-68
2022/06/11 05:12:23;;;;;;;0.73;0.10;;;;;;;24.81;41.70;100876.44;4990282;28;20410;-70
2022/06/11 05:14:48;;;;;;;0.28;0.10;;;;;;;24.82;41.94;100877.25;4990148;28;20038;-69
2022/06/11 05:17:14;;;;;;;1.15;0.20;;;;;;;24.82;41.59;100874.59;4990343;28;20026;-70
2022/06/11 05:19:39;;;;;;;2.35;0.22;;;;;;;24.81;41.59;100873.78;4990006;28;20104;-68
2022/06/11 05:22:05;;;;;;;0.63;0.20;;;;;;;24.80;41.79;100882.81;4990016;28;20036;-68
2022/06/11 05:24:31;;;;;;;0.70;0.30;;;;;;;24.81;41.86;100884.44;4989881;28;20038;-68
2022/06/11 05:27:02;;;;;;;1.15;0.20;;;;;;;24.82;41.80;100882.59;4990135;28;20076;-68
2022/06/11 05:29:32;;;;;;;0.63;0.15;;;;;;;24.80;41.68;100884.66;4989953;28;20031;-67
2022/06/11 05:31:58;;;;;;;0.32;0.20;;;;;;;24.79;41.87;100883.84;4990208;28;20030;-68
2022/06/11 05:34:25;;;;;;;0.47;0.20;;;;;;;24.79;41.54;100883.84;4989589;28;20030;-67
2022/06/11 05:36:51;;;;;;;1.48;0.20;;;;;;;24.78;41.87;100887.56;4990111;28;20033;-67
2022/06/11 05:39:17;;;;;;;1.23;0.30;;;;;;;24.78;41.76;100890.22;4989398;28;20034;-66
2022/06/11 05:41:42;;;;;;;0.95;0.20;;;;;;;24.79;41.92;100897.19;4989515;28;20068;-69
2022/06/11 05:44:08;;;;;;;0.40;0.20;;;;;;;24.79;42.08;100891.84;4989572;28;20126;-67
2022/06/11 05:46:34;;;;;;;1.02;0.20;;;;;;;24.79;41.99;100899.84;4989518;28;20089;-68
2022/06/11 05:49:06;;;;;;;1.75;0.28;;;;;;;24.78;41.83;100895.56;4989472;28;20053;-68
2022/06/11 05:51:39;;;;;;;1.15;0.20;;;;;;;24.78;42.05;100895.56;4989854;28;20030;-68
2022/06/11 05:54:13;;;;;;;1.23;0.30;;;;;;;24.79;41.88;100894.50;4989272;28;20038;-67
2022/06/11 05:56:38;;;;;;;2.05;0.25;;;;;;;24.79;41.94;100897.19;4989364;28;20026;-68
2022/06/11 05:59:09;;;;;;;0.73;0.20;;;;;;;24.79;42.00;100897.19;4989463;28;20033;-68
2022/06/11 06:01:38;;;;;;;1.40;0.20;;;;;;;24.80;42.10;100898.00;4989229;28;20029;-66
2022/06/11 06:04:04;;;;;;;0.95;0.20;;;;;;;24.78;41.88;100892.88;4989406;28;20494;-67
2022/06/11 06:06:29;;;;;;;0.80;0.30;;;;;;;24.78;41.89;100894.75;4988999;28;20037;-67
2022/06/11 06:08:55;;;;;;;1.02;0.15;;;;;;;24.78;41.75;100894.75;4989439;28;20249;-67
2022/06/11 06:11:20;;;;;;;0.60;0.15;;;;;;;24.76;42.05;100897.63;4989305;28;20544;-67
2022/06/11 06:13:46;;;;;;;1.13;0.20;;;;;;;24.76;41.69;100897.63;4989037;28;20056;-68
2022/06/11 06:16:12;;;;;;;3.17;0.20;;;;;;;24.77;41.95;100896.59;4988999;28;20022;-68
2022/06/11 06:18:38;;;;;;;2.75;0.20;;;;;;;24.76;42.06;100900.28;4988774;28;20034;-67
2022/06/11 06:21:04;;;;;;;4.18;0.22;;;;;;;24.76;41.95;100902.16;4988801;28;20061;-68
2022/06/11 06:23:34;;;;;;;2.45;0.30;;;;;;;24.73;41.97;100903.41;4988753;28;20026;-68
2022/06/11 06:25:59;;;;;;;3.60;0.20;;;;;;;24.73;41.98;100911.41;4988866;28;20398;-67
2022/06/11 06:28:25;;;;;;;1.20;0.32;;;;;;;24.73;41.99;100916.72;4989065;28;20038;-67
2022/06/11 06:30:50;;;;;;;0.77;0.30;;;;;;;24.71;42.04;100916.16;4988977;28;20034;-68
2022/06/11 06:33:16;;;;;;;2.45;0.10;;;;;;;24.73;42.04;100908.75;4988681;28;20188;-68
2022/06/11 06:35:42;;;;;;;3.05;0.52;;;;;;;24.75;42.11;100914.66;4988531;28;20022;-67
2022/06/11 06:38:07;;;;;;;1.55;0.20;;;;;;;24.75;41.77;100914.66;4988682;28;20042;-67
2022/06/11 06:40:33;;;;;;;2.08;0.20;;;;;;;24.75;41.75;100917.31;4988694;28;20026;-68
2022/06/11 06:42:59;;;;;;;0.82;0.20;;;;;;;24.74;41.88;100920.22;4988416;28;20065;-67
2022/06/11 06:45:24;;;;;;;1.63;0.20;;;;;;;24.75;41.74;100916.50;4988860;28;20445;-67
2022/06/11 06:47:50;;;;;;;3.55;0.20;;;;;;;24.77;41.86;100919.75;4988669;28;20053;-68
2022/06/11 06:50:15;;;;;;;0.55;0.10;;;;;;;24.78;41.75;100918.72;4988779;28;20167;-68
2022/06/11 06:52:41;;;;;;;2.58;0.60;;;;;;;24.78;41.44;100926.72;4988720;28;20026;-68
2022/06/11 06:55:08;;;;;;;0.70;0.20;;;;;;;24.80;41.13;100925.44;4988523;28;20084;-69
2022/06/11 06:57:33;;;;;;;0.60;0.10;;;;;;;24.83;41.51;100923.38;4988547;28;20033;-69
2022/06/11 07:00:01;;;;;;;1.83;0.20;;;;;;;24.83;41.38;100924.19;4988577;28;20030;-68
2022/06/11 07:02:26;;;;;;;0.63;0.15;;;;;;;24.83;41.34;100934.84;4988490;28;20370;-68
2022/06/11 07:04:52;;;;;;;1.13;0.20;;;;;;;24.86;41.90;100925.59;4988397;28;20181;-69
2022/06/11 07:07:18;;;;;;;21.08;0.40;;;;;;;24.94;42.28;100923.41;4992482;28;20197;-69
2022/06/11 07:09:44;;;;;;;1.30;0.20;;;;;;;24.97;42.19;100916.84;4992772;28;20034;-69
2022/06/11 07:12:09;;;;;;;1.50;0.35;;;;;;;24.96;41.66;100928.53;4992444;28;20392;-69
2022/06/11 07:14:35;;;;;;;5.47;0.32;;;;;;;24.93;41.87;100923.63;4992033;28;20041;-68
2022/06/11 07:17:05;;;;;;;5.60;0.60;;;;;;;24.97;42.08;100920.31;4992387;28;20467;-69
2022/06/11 07:19:37;;;;;;;4.35;0.50;;;;;;;24.97;41.42;100920.31;4992345;28;20081;-68
2022/06/11 07:22:09;;;;;;;0.70;0.30;;;;;;;24.94;40.99;100917.25;4992085;28;20037;-68
2022/06/11 07:24:37;;;;;;;1.70;0.30;;;;;;;24.94;41.57;100920.75;4992134;28;20034;-69
2022/06/11 07:27:08;;;;;;;4.53;0.57;;;;;;;24.95;41.58;100924.22;4991850;28;20415;-69
2022/06/11 07:29:43;;;;;;;5.30;0.20;;;;;;;24.94;41.79;100925.25;4992120;28;20045;-69
2022/06/11 07:32:14;;;;;;;2.15;0.20;;;;;;;24.95;41.51;100921.56;4992187;28;20396;-69
2022/06/11 07:34:41;;;;;;;1.33;0.40;;;;;;;24.93;41.45;100919.13;4992016;28;20076;-68
2022/06/11 07:37:06;;;;;;;0.68;0.30;;;;;;;24.95;41.90;100918.88;4991973;28;20438;-69
2022/06/11 07:39:33;;;;;;;1.55;0.20;;;;;;;24.93;42.01;100916.44;4991960;28;20041;-69
2022/06/11 07:41:58;;;;;;;1.23;0.20;;;;;;;24.92;42.10;100909.50;4991679;28;20241;-68
2022/06/11 07:44:24;;;;;;;1.70;0.20;;;;;;;24.92;41.83;100906.03;4992069;28;20034;-68
2022/06/11 07:46:49;;;;;;;0.68;0.20;;;;;;;24.89;41.42;100909.94;4991956;28;20058;-69
2022/06/11 07:49:15;;;;;;;1.45;0.20;;;;;;;24.90;41.32;100908.91;4991714;28;20034;-69
2022/06/11 07:51:40;;;;;;;0.82;0.20;;;;;;;24.92;41.14;100906.03;4991708;28;20390;-68
2022/06/11 07:54:06;;;;;;;2.10;0.20;;;;;;;24.91;40.79;100907.88;4991554;28;20475;-69
2022/06/11 07:56:31;;;;;;;0.35;0.10;;;;;;;24.91;40.70;100909.72;4991651;28;20034;-68
2022/06/11 07:58:57;;;;;;;0.52;0.10;;;;;;;24.89;40.73;100903.81;4991411;28;20069;-68
2022/06/11 08:01:22;;;;;;;1.55;0.30;;;;;;;24.90;41.52;100908.91;4991563;28;20031;-68
2022/06/11 08:03:48;;;;;;;0.57;0.20;;;;;;;24.92;41.55;100911.34;4991290;28;20030;-69
2022/06/11 08:06:13;;;;;;;1.48;0.30;;;;;;;24.89;41.47;100907.28;4991792;28;20026;-69
2022/06/11 08:08:39;;;;;;;1.00;0.20;;;;;;;24.89;41.37;100912.63;4988966;28;20026;-69
2022/06/11 08:11:06;;;;;;;2.28;0.20;;;;;;;24.90;41.10;100911.56;4974019;28;20026;-68
2022/06/11 08:13:32;;;;;;;0.28;0.10;;;;;;;24.91;41.15;100915.06;4989344;28;20382;-68
2022/06/11 08:15:59;;;;;;;2.83;0.20;;;;;;;24.92;41.39;100911.34;4991344;28;20041;-69
2022/06/11 08:18:25;;;;;;;0.28;0.20;;;;;;;24.91;41.40;100915.88;4990186;28;20022;-68
2022/06/11 08:20:51;;;;;;;2.25;0.20;;;;;;;24.90;41.62;100908.91;4991587;28;20066;-68
2022/06/11 08:23:18;;;;;;;1.95;0.20;;;;;;;24.91;41.03;100909.72;4988578;28;20037;-69
2022/06/11 08:25:44;;;;;;;1.65;0.20;;;;;;;24.90;40.69;100906.25;4987833;28;20109;-69
2022/06/11 08:28:12;;;;;;;0.60;0.20;;;;;;;24.92;40.58;100906.03;4988903;28;20117;-69
2022/06/11 08:30:37;;;;;;;5.25;0.65;;;;;;;24.99;41.77;100906.75;4990795;28;20026;-69
2022/06/11 08:33:03;;;;;;;0.80;0.30;;;;;;;25.02;42.13;100896.47;4990626;28;20371;-69
2022/06/11 08:35:30;;;;;;;0.47;0.20;;;;;;;25.01;41.35;100904.69;4990509;28;20022;-69
2022/06/11 08:37:56;;;;;;;0.82;0.20;;;;;;;24.99;41.27;100898.78;4989528;28;20128;-69
2022/06/11 08:40:27;;;;;;;1.05;0.20;;;;;;;24.97;41.04;100906.19;4989117;28;20467;-69
2022/06/11 08:43:12;;;;;;;0.28;0.10;;;;;;;24.95;41.06;100893.06;4990430;28;20131;-69
2022/06/11 08:45:43;;;;;;;0.95;0.30;;;;;;;24.94;40.60;100898.59;4990380;28;20030;-69
2022/06/11 08:48:45;;;;;;;1.95;0.20;;;;;;;24.92;40.57;100898.03;4990871;28;20031;-69
2022/06/11 08:51:38;;;;;;;0.47;0.10;;;;;;;24.91;40.55;100901.72;4987804;28;20117;-69
2022/06/11 08:54:11;;;;;;;0.52;0.20;;;;;;;24.92;40.93;100892.69;4988244;28;20034;-69
2022/06/11 08:56:52;;;;;;;1.95;0.20;;;;;;;24.93;40.49;100896.97;4990157;28;20042;-69
2022/06/11 08:59:26;;;;;;;0.88;0.20;;;;;;;24.94;40.54;100893.28;4990304;28;20030;-69
2022/06/11 09:02:10;;;;;;;2.00;0.20;;;;;;;24.94;40.67;100894.09;4988707;28;20386;-69
2022/06/11 09:05:10;;;;;;;1.30;0.20;;;;;;;24.94;40.65;100885.28;4978272;28;20113;-68
2022/06/11 09:08:02;;;;;;;0.30;0.10;;;;;;;24.94;40.58;100882.63;4986741;28;20041;-69
2022/06/11 09:10:51;;;;;;;0.47;0.20;;;;;;;24.96;40.67;100880.56;4959718;28;20154;-69
2022/06/11 09:13:25;;;;;;;0.70;0.17;;;;;;;24.97;40.41;100882.19;4986359;28;20046;-69
2022/06/11 09:16:18;;;;;;;0.40;0.20;;;;;;;24.98;40.34;100883.81;4989882;28;20069;-69
2022/06/11 09:18:53;;;;;;;0.40;0.20;;;;;;;24.99;40.20;100882.78;4988450;28;20057;-69
2022/06/11 09:21:36;;;;;;;0.60;0.20;;;;;;;24.96;40.16;100880.56;4989182;28;20038;-69
2022/06/11 09:24:30;;;;;;;0.30;0.20;;;;;;;24.96;40.02;100875.25;4990023;28;20049;-68
2022/06/11 09:27:06;;;;;;;0.65;0.20;;;;;;;24.96;40.36;100875.25;4990058;28;20034;-69
2022/06/11 09:30:08;;;;;;;0.55;0.20;;;;;;;24.93;40.76;100875.66;4988227;28;20469;-69
2022/06/11 09:32:52;;;;;;;0.40;0.20;;;;;;;24.92;41.00;100882.84;4939207;28;20557;-70
2022/06/11 09:35:27;;;;;;;1.20;0.20;;;;;;;24.95;41.01;100878.91;4938813;28;20527;-69
2022/06/11 09:38:31;;;;;;;0.50;0.20;;;;;;;24.94;40.79;100878.09;4942458;29;20046;-69
2022/06/11 09:41:34;;;;;;;3.83;0.25;;;;;;;24.94;41.18;100882.63;4928736;29;20459;-69
2022/06/11 09:44:03;;;;;;;1.08;0.30;;;;;;;24.95;41.20;100878.91;4942592;29;20047;-69
2022/06/11 09:47:18;;;;;;;1.13;0.20;;;;;;;24.96;41.42;100875.25;4928979;29;20130;-69
2022/06/11 09:49:52;;;;;;;1.83;0.20;;;;;;;24.99;41.19;100869.44;4923466;29;21170;-69
2022/06/11 09:52:26;;;;;;;1.95;0.20;;;;;;;25.02;41.25;100874.31;4942030;29;20202;-69
2022/06/11 09:55:29;;;;;;;1.40;0.20;;;;;;;25.01;41.55;100864.69;4942349;29;20039;-69
2022/06/11 09:58:04;;;;;;;2.03;0.30;;;;;;;25.03;41.18;100859.94;4938730;29;20133;-69
2022/06/11 10:00:36;;;;;;;0.50;0.20;;;;;;;25.04;41.38;100858.91;4944745;29;20695;-69
2022/06/11 10:05:55;;;;;;;0.68;0.20;;;;;;;25.09;41.26;100848.34;4949787;28;20039;-69
2022/06/11 10:08:49;;;;;;;1.45;0.20;;;;;;;25.09;41.19;100856.34;4989049;28;20038;-69
2022/06/11 10:11:24;;;;;;;0.73;0.28;;;;;;;25.12;41.18;100853.22;4977911;28;20056;-70
2022/06/11 10:14:28;;;;;;;0.70;0.30;;;;;;;25.15;41.02;100847.44;4989045;28;20125;-70
2022/06/11 10:17:02;;;;;;;1.20;0.20;;;;;;;25.15;40.63;100847.44;4988674;28;20046;-71
2022/06/11 10:19:53;;;;;;;0.60;0.20;;;;;;;25.13;40.77;100849.50;4963916;28;20129;-69
2022/06/11 10:22:35;;;;;;;4.38;0.30;;;;;;;25.11;40.78;100852.41;4983967;28;20037;-69
2022/06/11 10:25:28;;;;;;;3.03;0.20;;;;;;;25.11;40.69;100843.59;4989075;28;20090;-69
2022/06/11 10:28:00;;;;;;;0.30;0.20;;;;;;;25.13;40.69;100841.50;4984804;28;20038;-69
2022/06/11 10:30:45;;;;;;;4.40;0.22;;;;;;;25.13;40.83;100829.00;4988769;28;20038;-69
2022/06/11 10:33:22;;;;;;;2.05;0.30;;;;;;;25.13;40.33;100833.50;4986336;28;20089;-70
2022/06/11 10:36:03;;;;;;;0.60;0.30;;;;;;;25.16;40.38;100835.72;4978583;28;20049;-69
2022/06/11 10:38:41;;;;;;;1.25;0.20;;;;;;;25.15;40.33;100826.09;4987481;28;20117;-69
2022/06/11 10:41:11;;;;;;;1.90;0.30;;;;;;;25.17;39.95;100833.88;4987504;28;20023;-68
2022/06/11 10:44:05;;;;;;;2.95;0.20;;;;;;;25.17;40.24;100829.34;4988448;28;20160;-68
2022/06/11 10:46:35;;;;;;;6.65;0.30;;;;;;;25.19;40.78;100826.44;4973558;28;20061;-69
2022/06/11 10:49:01;;;;;;;1.55;0.30;;;;;;;25.21;40.71;100819.84;4981286;28;20122;-69
2022/06/11 10:51:33;;;;;;;0.40;0.22;;;;;;;25.28;40.90;100825.88;4993400;28;20137;-70
2022/06/11 10:54:12;;;;;;;0.65;0.30;;;;;;;25.26;40.83;100819.94;5007467;28;20099;-70
2022/06/11 10:56:46;;;;;;;0.88;0.38;;;;;;;25.27;40.83;100821.56;4985604;28;20030;-69
2022/06/11 10:59:31;;;;;;;1.23;0.40;;;;;;;25.44;43.06;100819.03;4987164;28;20040;-70
2022/06/11 11:02:11;;;;;;;5.25;0.30;;;;;;;25.96;42.08;100821.72;4988139;28;20042;-71
2022/06/11 11:04:57;;;;;;;0.50;0.22;;;;;;;26.06;40.13;100822.72;4987327;28;20031;-70
2022/06/11 11:07:24;;;;;;;1.05;0.30;;;;;;;26.06;41.11;100822.72;4988364;28;20037;-70
2022/06/11 11:09:55;;;;;;;3.30;0.30;;;;;;;26.23;42.42;100824.63;4988495;28;20065;-70
2022/06/11 11:12:37;;;;;;;1.52;0.40;;;;;;;26.26;47.01;100821.47;4988416;28;20026;-69
2022/06/11 11:15:14;;;;;;;2.10;0.55;;;;;;;26.28;48.51;100824.72;4984998;28;20030;-70
2022/06/11 11:17:53;;;;;;;1.63;0.47;;;;;;;26.35;49.58;100822.75;4984275;28;20033;-70
2022/06/11 11:20:40;;;;;;;1.02;0.30;;;;;;;26.31;45.58;100818.94;4986339;28;20034;-70
2022/06/11 11:23:06;;;;;;;0.60;0.30;;;;;;;26.36;48.88;100813.69;4987675;28;20573;-70
2022/06/11 11:25:36;;;;;;;2.25;0.40;;;;;;;26.64;51.46;100813.63;4986607;28;20073;-69
2022/06/11 11:28:05;;;;;;;5.07;0.63;;;;;;;26.72;52.38;100815.91;4988005;28;20040;-69
2022/06/11 11:30:38;;;;;;;4.95;0.30;;;;;;;26.59;49.58;100816.22;4987070;28;20148;-69
2022/06/11 11:33:25;;;;;;;4.22;0.40;;;;;;;26.41;46.51;100816.44;4983988;28;20038;-69
2022/06/11 11:36:00;;;;;;;0.70;0.20;;;;;;;26.27;44.67;100812.41;4985718;28;20038;-69
2022/06/11 11:38:27;;;;;;;0.68;0.32;;;;;;;26.18;43.22;100814.66;4985967;28;20045;-69
2022/06/11 11:41:00;;;;;;;1.50;0.55;;;;;;;26.13;41.54;100804.69;4986586;28;20065;-70
2022/06/11 11:43:39;;;;;;;0.80;0.40;;;;;;;26.10;40.96;100807.84;4986354;28;20049;-71
2022/06/11 11:46:14;;;;;;;0.88;0.40;;;;;;;26.06;41.59;100808.53;4984705;28;20074;-70
2022/06/11 11:48:50;;;;;;;0.90;0.30;;;;;;;26.03;41.29;100809.84;4987919;28;20056;-70
2022/06/11 11:51:18;;;;;;;1.65;0.30;;;;;;;26.08;41.04;100806.44;4983531;28;20041;-69
2022/06/11 11:53:47;;;;;;;3.13;0.40;;;;;;;26.13;40.78;100809.22;4990667;28;20050;-70